createdAt,value
2022-11-07T00:01:14.394Z,15.20
2022-11-07T00:03:42.056Z,14.60
2022-11-07T00:06:09.830Z,14.70
2022-11-07T00:08:37.536Z,16.70
2022-11-07T00:11:05.949Z,15.70
2022-11-07T00:13:33.819Z,16.50
2022-11-07T00:16:04.618Z,15.40
2022-11-07T00:18:32.630Z,14.70
2022-11-07T00:21:09.124Z,16.10
2022-11-07T00:23:40.235Z,14.70
2022-11-07T00:26:13.524Z,15.80
2022-11-07T00:28:45.603Z,14.30
2022-11-07T00:31:14.913Z,14.00
2022-11-07T00:33:43.436Z,14.50
2022-11-07T00:36:18.416Z,14.20
2022-11-07T00:38:45.988Z,15.50
2022-11-07T00:41:13.732Z,14.70
2022-11-07T00:43:41.335Z,14.80
2022-11-07T00:46:10.661Z,15.90
2022-11-07T00:48:39.009Z,16.10
2022-11-07T00:51:07.916Z,15.10
2022-11-07T00:53:35.807Z,16.40
2022-11-07T00:56:05.633Z,17.50
2022-11-07T00:58:33.804Z,17.10
2022-11-07T01:01:08.641Z,18.00
2022-11-07T01:03:36.606Z,17.90
2022-11-07T01:06:04.948Z,13.60
2022-11-07T01:08:32.879Z,16.80
2022-11-07T01:11:04.642Z,17.10
2022-11-07T01:13:33.053Z,16.40
2022-11-07T01:16:00.616Z,18.00
2022-11-07T01:18:28.648Z,17.40
2022-11-07T01:20:56.262Z,17.00
2022-11-07T01:23:23.944Z,17.90
2022-11-07T01:25:51.518Z,16.40
2022-11-07T01:28:19.099Z,15.80
2022-11-07T01:30:46.696Z,18.60
2022-11-07T01:33:14.548Z,17.10
2022-11-07T01:35:42.402Z,17.50
2022-11-07T01:38:09.977Z,16.90
2022-11-07T01:40:42.561Z,16.90
2022-11-07T01:43:10.681Z,17.50
2022-11-07T01:45:38.241Z,17.50
2022-11-07T01:48:05.848Z,17.30
2022-11-07T01:50:33.472Z,15.80
2022-11-07T01:53:01.171Z,16.50
2022-11-07T01:55:33.714Z,17.60
2022-11-07T01:58:08.184Z,16.10
2022-11-07T02:00:36.891Z,15.60
2022-11-07T02:03:11.217Z,16.30
2022-11-07T02:05:47.163Z,17.30
2022-11-07T02:08:16.246Z,16.40
2022-11-07T02:10:44.159Z,17.30
2022-11-07T02:13:19.498Z,16.60
2022-11-07T02:15:47.218Z,17.60
2022-11-07T02:18:14.883Z,16.50
2022-11-07T02:20:42.479Z,17.20
2022-11-07T02:23:36.178Z,16.20
2022-11-07T02:26:03.834Z,16.00
2022-11-07T02:28:33.792Z,16.10
2022-11-07T02:31:01.394Z,17.40
2022-11-07T02:33:28.940Z,17.10
2022-11-07T02:35:56.699Z,17.30
2022-11-07T02:38:28.845Z,17.30
2022-11-07T02:41:11.817Z,17.30
2022-11-07T02:43:42.757Z,16.70
2022-11-07T02:46:12.997Z,17.50
2022-11-07T02:48:44.197Z,16.40
2022-11-07T02:51:11.819Z,16.40
2022-11-07T02:53:39.749Z,15.50
2022-11-07T02:56:07.761Z,17.00
2022-11-07T02:58:35.837Z,17.10
2022-11-07T03:01:04.216Z,17.80
2022-11-07T03:03:31.890Z,17.70
2022-11-07T03:05:59.516Z,18.10
2022-11-07T03:08:27.374Z,17.20
2022-11-07T03:10:55.093Z,16.40
2022-11-07T03:13:23.237Z,17.00
2022-11-07T03:15:51.032Z,17.20
2022-11-07T03:18:18.616Z,16.60
2022-11-07T03:20:46.496Z,16.40
2022-11-07T03:23:14.316Z,16.50
2022-11-07T03:25:42.454Z,16.40
2022-11-07T03:28:10.151Z,16.30
2022-11-07T03:30:37.698Z,15.90
2022-11-07T03:33:05.292Z,16.00
2022-11-07T03:35:33.026Z,16.50
2022-11-07T03:38:00.684Z,16.40
2022-11-07T03:40:28.364Z,16.30
2022-11-07T03:42:55.926Z,16.80
2022-11-07T03:45:23.499Z,15.60
2022-11-07T03:47:51.082Z,16.30
2022-11-07T03:50:20.873Z,16.50
2022-11-07T03:52:49.221Z,17.40
2022-11-07T03:55:16.919Z,17.40
2022-11-07T03:57:44.898Z,16.40
2022-11-07T04:00:13.506Z,16.10
2022-11-07T04:02:43.400Z,16.40
2022-11-07T04:05:11.507Z,16.40
2022-11-07T04:07:39.296Z,15.90
2022-11-07T04:10:07.360Z,17.10
2022-11-07T04:12:34.899Z,16.90
2022-11-07T04:15:02.834Z,17.10
2022-11-07T04:17:30.861Z,17.00
2022-11-07T04:19:58.421Z,16.60
2022-11-07T04:22:26.380Z,15.60
2022-11-07T04:24:53.953Z,16.60
2022-11-07T04:27:21.793Z,16.40
2022-11-07T04:29:49.330Z,16.90
2022-11-07T04:32:16.896Z,16.20
2022-11-07T04:34:44.457Z,16.50
2022-11-07T04:37:12.012Z,17.40
2022-11-07T04:39:39.573Z,17.60
2022-11-07T04:42:07.119Z,15.60
2022-11-07T04:44:34.672Z,16.80
2022-11-07T04:47:02.311Z,16.60
2022-11-07T04:49:29.913Z,16.70
2022-11-07T04:51:57.523Z,17.00
2022-11-07T04:54:25.180Z,15.50
2022-11-07T04:56:52.754Z,16.00
2022-11-07T04:59:20.403Z,15.80
2022-11-07T05:01:48.170Z,15.20
2022-11-07T05:04:15.929Z,16.10
2022-11-07T05:06:43.484Z,15.60
2022-11-07T05:09:16.575Z,16.10
2022-11-07T05:11:48.893Z,16.50
2022-11-07T05:14:16.473Z,15.00
2022-11-07T05:16:44.327Z,16.80
2022-11-07T05:19:19.569Z,16.20
2022-11-07T05:21:47.650Z,16.70
2022-11-07T05:24:15.272Z,16.60
2022-11-07T05:26:42.808Z,15.00
2022-11-07T05:29:10.866Z,15.40
2022-11-07T05:31:38.456Z,16.80
2022-11-07T05:34:08.663Z,17.50
2022-11-07T05:36:39.369Z,17.50
2022-11-07T05:39:06.963Z,19.60
2022-11-07T05:41:35.898Z,19.10
2022-11-07T05:44:03.604Z,17.90
2022-11-07T05:46:31.167Z,19.70
2022-11-07T05:49:01.167Z,18.70
2022-11-07T05:51:28.977Z,18.70
2022-11-07T05:53:56.551Z,19.90
2022-11-07T05:56:24.117Z,19.20
2022-11-07T05:58:51.677Z,19.60
2022-11-07T06:01:19.257Z,18.90
2022-11-07T06:03:46.821Z,19.50
2022-11-07T06:06:14.370Z,16.90
2022-11-07T06:08:41.913Z,20.30
2022-11-07T06:11:09.580Z,18.80
2022-11-07T06:13:37.172Z,18.40
2022-11-07T06:16:05.318Z,18.00
2022-11-07T06:18:35.568Z,20.40
2022-11-07T06:21:06.784Z,24.70
2022-11-07T06:23:34.397Z,24.30
2022-11-07T06:26:02.001Z,19.20
2022-11-07T06:28:29.576Z,19.50
2022-11-07T06:31:00.261Z,17.50
2022-11-07T06:33:28.407Z,17.70
2022-11-07T06:35:56.324Z,17.80
2022-11-07T06:38:23.882Z,15.80
2022-11-07T06:40:51.478Z,26.90
2022-11-07T06:43:20.155Z,23.40
2022-11-07T06:45:48.171Z,21.00
2022-11-07T06:48:16.025Z,24.20
2022-11-07T06:50:43.610Z,20.90
2022-11-07T06:53:13.425Z,21.40
2022-11-07T06:55:41.479Z,18.90
2022-11-07T06:58:09.149Z,19.80
2022-11-07T07:00:37.420Z,18.60
2022-11-07T07:03:05.631Z,19.70
2022-11-07T07:05:34.245Z,19.50
2022-11-07T07:08:05.152Z,19.90
2022-11-07T07:10:37.767Z,23.90
2022-11-07T07:13:05.434Z,30.20
2022-11-07T07:15:49.308Z,32.10
2022-11-07T07:18:18.332Z,30.70
2022-11-07T07:20:47.897Z,26.20
2022-11-07T07:23:17.276Z,24.20
2022-11-07T07:25:46.125Z,21.30
2022-11-07T07:28:13.914Z,19.20
2022-11-07T07:30:43.033Z,20.60
2022-11-07T07:33:12.708Z,20.70
2022-11-07T07:35:40.490Z,19.50
2022-11-07T07:38:08.064Z,21.40
2022-11-07T07:40:35.631Z,20.10
2022-11-07T07:43:03.195Z,21.40
2022-11-07T07:45:30.753Z,19.10
2022-11-07T07:48:01.673Z,19.90
2022-11-07T07:50:29.624Z,19.80
2022-11-07T07:52:58.312Z,20.90
2022-11-07T07:55:25.971Z,21.30
2022-11-07T07:57:53.558Z,22.90
2022-11-07T08:00:21.202Z,22.60
2022-11-07T08:02:48.810Z,21.40
2022-11-07T08:05:16.538Z,19.50
2022-11-07T08:07:48.402Z,20.20
2022-11-07T08:13:05.960Z,19.70
2022-11-07T08:15:33.675Z,20.30
2022-11-07T08:18:02.642Z,20.70
2022-11-07T08:20:30.474Z,21.90
2022-11-07T08:23:14.553Z,20.30
2022-11-07T08:25:49.580Z,19.80
2022-11-07T08:28:17.430Z,26.00
2022-11-07T08:30:45.035Z,21.30
2022-11-07T08:33:12.871Z,20.60
2022-11-07T08:35:42.661Z,21.30
2022-11-07T08:38:10.676Z,21.00
2022-11-07T08:40:38.504Z,21.70
2022-11-07T08:43:06.124Z,20.90
2022-11-07T08:45:33.703Z,20.90
2022-11-07T08:48:01.274Z,25.20
2022-11-07T08:50:28.883Z,24.90
2022-11-07T08:53:02.274Z,22.70
2022-11-07T08:55:30.848Z,21.40
2022-11-07T08:58:03.076Z,21.80
2022-11-07T09:00:31.320Z,21.00
2022-11-07T09:05:56.852Z,20.20
2022-11-07T09:08:24.427Z,21.40
2022-11-07T09:10:52.080Z,21.00
2022-11-07T09:13:19.772Z,21.00
2022-11-07T09:15:51.022Z,20.90
2022-11-07T09:18:19.937Z,20.90
2022-11-07T09:20:47.637Z,18.20
2022-11-07T09:23:15.440Z,18.20
2022-11-07T09:25:43.319Z,19.90
2022-11-07T09:28:10.910Z,19.10
2022-11-07T09:30:38.535Z,18.80
2022-11-07T09:33:06.158Z,17.90
2022-11-07T09:35:33.908Z,17.80
2022-11-07T09:38:01.488Z,19.10
2022-11-07T09:40:38.777Z,19.40
2022-11-07T09:43:18.757Z,19.40
2022-11-07T09:46:08.002Z,17.30
2022-11-07T09:48:44.307Z,17.50
2022-11-07T09:51:26.252Z,17.80
2022-11-07T09:54:00.122Z,15.80
2022-11-07T09:56:31.030Z,16.60
2022-11-07T09:59:08.440Z,17.80
2022-11-07T10:01:39.051Z,18.10
2022-11-07T10:04:26.187Z,17.20
2022-11-07T10:07:08.636Z,16.50
2022-11-07T10:10:03.994Z,15.80
2022-11-07T10:13:06.168Z,16.20
2022-11-07T10:15:50.458Z,16.50
2022-11-07T10:18:28.744Z,15.40
2022-11-07T10:24:21.958Z,15.10
2022-11-07T10:26:49.553Z,15.50
2022-11-07T10:29:22.624Z,14.50
2022-11-07T10:32:25.862Z,15.00
2022-11-07T10:35:10.315Z,14.10
2022-11-07T10:37:38.132Z,13.40
2022-11-07T10:40:16.932Z,14.60
2022-11-07T10:42:49.152Z,12.80
2022-11-07T10:45:18.043Z,15.20
2022-11-07T10:47:57.334Z,13.80
2022-11-07T10:50:25.220Z,14.20
2022-11-07T10:53:04.614Z,14.00
2022-11-07T10:55:43.817Z,14.70
2022-11-07T10:58:24.530Z,14.40
2022-11-07T11:01:09.747Z,13.20
2022-11-07T11:03:47.061Z,13.70
2022-11-07T11:06:17.581Z,13.30
2022-11-07T11:08:47.326Z,13.20
2022-11-07T11:11:19.144Z,12.30
2022-11-07T11:13:47.511Z,12.60
2022-11-07T11:16:29.593Z,11.20
2022-11-07T11:19:02.601Z,11.80
2022-11-07T11:21:45.584Z,10.90
2022-11-07T11:24:22.935Z,9.40
2022-11-07T11:26:52.328Z,8.10
2022-11-07T11:29:40.839Z,9.30
2022-11-07T11:32:22.200Z,8.30
2022-11-07T11:35:15.756Z,7.30
2022-11-07T11:37:58.545Z,7.80
2022-11-07T11:40:28.393Z,7.70
2022-11-07T11:43:18.988Z,8.00
2022-11-07T11:46:02.010Z,7.50
2022-11-07T11:48:41.283Z,8.40
2022-11-07T11:51:14.860Z,6.70
2022-11-07T11:53:42.473Z,7.80
2022-11-07T11:56:34.543Z,7.70
2022-11-07T11:59:45.450Z,7.40
2022-11-07T12:02:46.265Z,6.80
2022-11-07T12:05:22.926Z,7.50
2022-11-07T12:08:28.102Z,68.60
2022-11-07T12:11:34.570Z,8.10
2022-11-07T12:14:26.308Z,7.20
2022-11-07T12:17:09.249Z,6.60
2022-11-07T12:19:58.219Z,7.70
2022-11-07T12:22:49.794Z,7.80
2022-11-07T12:25:35.184Z,5.40
2022-11-07T12:28:17.897Z,6.60
2022-11-07T12:30:51.352Z,7.40
2022-11-07T12:33:28.765Z,7.10
2022-11-07T12:36:10.733Z,7.10
2022-11-07T12:39:07.805Z,5.10
2022-11-07T12:41:57.481Z,5.60
2022-11-07T12:44:53.658Z,5.00
2022-11-07T12:47:46.187Z,6.00
2022-11-07T12:50:17.805Z,5.00
2022-11-07T12:55:45.331Z,4.90
2022-11-07T12:58:24.121Z,5.50
2022-11-07T13:00:52.652Z,6.10
2022-11-07T13:03:45.760Z,4.70
2022-11-07T13:06:30.578Z,5.00
2022-11-07T13:09:10.324Z,5.00
2022-11-07T13:11:51.335Z,5.00
2022-11-07T13:14:33.551Z,4.00
2022-11-07T13:17:19.000Z,4.00
2022-11-07T13:20:20.402Z,3.70
2022-11-07T13:22:49.939Z,3.10
2022-11-07T13:25:18.148Z,3.90
2022-11-07T13:28:00.075Z,4.00
2022-11-07T13:30:30.368Z,3.10
2022-11-07T13:32:59.148Z,3.60
2022-11-07T13:35:28.284Z,4.70
2022-11-07T13:38:04.505Z,3.10
2022-11-07T13:40:39.488Z,3.20
2022-11-07T13:43:22.327Z,3.20
2022-11-07T13:45:54.131Z,3.20
2022-11-07T13:48:24.529Z,3.40
2022-11-07T13:51:01.088Z,3.10
2022-11-07T13:53:45.648Z,3.10
2022-11-07T13:56:36.647Z,3.50
2022-11-07T13:59:10.750Z,3.80
2022-11-07T14:01:43.393Z,3.30
2022-11-07T14:04:20.843Z,74.90
2022-11-07T14:06:50.180Z,5.70
2022-11-07T14:09:20.306Z,4.40
2022-11-07T14:11:51.459Z,3.60
2022-11-07T14:14:24.426Z,3.90
2022-11-07T14:16:56.221Z,3.60
2022-11-07T14:19:27.756Z,3.00
2022-11-07T14:21:56.227Z,3.70
2022-11-07T14:24:31.232Z,3.60
2022-11-07T14:27:07.819Z,4.30
2022-11-07T14:29:35.374Z,3.60
2022-11-07T14:32:06.249Z,4.70
2022-11-07T14:34:44.578Z,7.70
2022-11-07T14:37:18.367Z,9.70
2022-11-07T14:39:46.830Z,11.00
2022-11-07T14:42:23.090Z,9.60
2022-11-07T14:44:55.427Z,6.50
2022-11-07T14:47:27.057Z,7.20
2022-11-07T14:49:56.352Z,6.20
2022-11-07T14:52:38.549Z,5.80
2022-11-07T14:55:08.341Z,6.10
2022-11-07T14:57:38.191Z,7.50
2022-11-07T15:00:15.137Z,6.80
2022-11-07T15:02:45.745Z,6.70
2022-11-07T15:05:45.937Z,8.30
2022-11-07T15:08:32.473Z,6.70
2022-11-07T15:11:15.979Z,7.80
2022-11-07T15:13:47.743Z,7.20
2022-11-07T15:16:18.398Z,5.50
2022-11-07T15:18:57.891Z,11.90
2022-11-07T15:21:50.767Z,7.80
2022-11-07T15:24:45.764Z,9.50
2022-11-07T15:27:13.271Z,8.40
2022-11-07T15:29:53.291Z,7.60
2022-11-07T15:32:23.116Z,7.10
2022-11-07T15:35:07.935Z,6.00
2022-11-07T15:37:39.648Z,6.20
2022-11-07T15:40:14.679Z,5.90
2022-11-07T15:42:42.380Z,5.90
2022-11-07T15:45:10.767Z,6.40
2022-11-07T15:47:38.907Z,6.30
2022-11-07T15:50:25.477Z,6.60
2022-11-07T15:52:54.494Z,6.50
2022-11-07T15:55:23.067Z,6.80
2022-11-07T15:57:52.975Z,6.50
2022-11-07T16:00:23.631Z,6.90
2022-11-07T16:02:51.544Z,6.90
2022-11-07T16:05:19.230Z,7.80
2022-11-07T16:07:47.201Z,8.20
2022-11-07T16:10:26.426Z,7.80
2022-11-07T16:12:54.435Z,7.40
2022-11-07T16:15:25.179Z,9.00
2022-11-07T16:17:52.780Z,11.70
2022-11-07T16:20:23.071Z,7.90
2022-11-07T16:22:51.157Z,8.40
2022-11-07T16:25:23.262Z,8.00
2022-11-07T16:27:53.763Z,8.50
2022-11-07T16:30:22.331Z,8.30
2022-11-07T16:32:49.971Z,8.10
2022-11-07T16:35:17.668Z,8.30
2022-11-07T16:37:45.267Z,7.80
2022-11-07T16:40:19.002Z,9.60
2022-11-07T16:42:46.916Z,8.60
2022-11-07T16:45:16.757Z,9.40
2022-11-07T16:47:44.654Z,9.20
2022-11-07T16:50:16.810Z,9.40
2022-11-07T16:52:44.405Z,9.20
2022-11-07T16:55:17.402Z,10.00
2022-11-07T16:57:46.010Z,8.30
2022-11-07T17:00:22.905Z,9.60
2022-11-07T17:02:50.966Z,8.60
2022-11-07T17:05:18.715Z,9.30
2022-11-07T17:07:46.302Z,9.00
2022-11-07T17:10:17.421Z,9.50
2022-11-07T17:12:45.073Z,9.20
2022-11-07T17:15:12.674Z,8.90
2022-11-07T17:17:40.397Z,12.40
2022-11-07T17:20:48.641Z,10.40
2022-11-07T17:23:08.201Z,9.90
2022-11-07T17:25:37.222Z,8.60
2022-11-07T17:28:05.400Z,8.70
2022-11-07T17:30:33.378Z,8.70
2022-11-07T17:33:00.996Z,9.50
2022-11-07T17:35:32.831Z,9.30
2022-11-07T17:38:00.661Z,11.60
2022-11-07T17:40:30.569Z,12.20
2022-11-07T17:42:59.535Z,17.40
2022-11-07T17:45:27.769Z,13.30
2022-11-07T17:47:55.455Z,14.50
2022-11-07T17:50:23.313Z,16.40
2022-11-07T17:52:50.893Z,16.40
2022-11-07T17:55:18.690Z,14.90
2022-11-07T17:57:46.298Z,16.10
2022-11-07T18:00:19.433Z,16.40
2022-11-07T18:02:49.714Z,16.40
2022-11-07T18:05:20.044Z,16.80
2022-11-07T18:07:47.711Z,18.20
2022-11-07T18:10:16.421Z,18.70
2022-11-07T18:12:44.372Z,18.70
2022-11-07T18:15:12.172Z,18.60
2022-11-07T18:17:40.749Z,21.00
2022-11-07T18:20:09.684Z,19.70
2022-11-07T18:22:37.563Z,18.50
2022-11-07T18:25:06.843Z,15.70
2022-11-07T18:27:34.757Z,14.40
2022-11-07T18:30:03.542Z,12.90
2022-11-07T18:32:35.682Z,14.00
2022-11-07T18:35:05.300Z,12.90
2022-11-07T18:37:33.014Z,13.60
2022-11-07T18:40:00.668Z,13.00
2022-11-07T18:42:28.254Z,13.90
2022-11-07T18:44:55.859Z,13.60
2022-11-07T18:47:23.544Z,14.10
2022-11-07T18:49:56.636Z,13.60
2022-11-07T18:52:24.615Z,14.50
2022-11-07T18:54:52.205Z,14.20
2022-11-07T18:57:19.790Z,14.20
2022-11-07T18:59:47.798Z,13.80
2022-11-07T19:02:15.886Z,13.90
2022-11-07T19:04:43.695Z,14.80
2022-11-07T19:07:11.408Z,14.00
2022-11-07T19:09:39.076Z,18.10
2022-11-07T19:12:07.089Z,15.40
2022-11-07T19:14:34.862Z,15.90
2022-11-07T19:17:02.849Z,13.90
2022-11-07T19:19:30.678Z,13.00
2022-11-07T19:21:58.343Z,13.70
2022-11-07T19:24:25.944Z,13.60
2022-11-07T19:26:54.008Z,13.90
2022-11-07T19:29:21.812Z,13.30
2022-11-07T19:31:49.813Z,15.90
2022-11-07T19:34:17.461Z,15.90
2022-11-07T19:36:45.084Z,17.50
2022-11-07T19:39:12.680Z,18.10
2022-11-07T19:41:40.269Z,17.40
2022-11-07T19:44:08.032Z,17.50
2022-11-07T19:46:36.073Z,16.50
2022-11-07T19:49:03.791Z,20.60
2022-11-07T19:51:31.818Z,19.30
2022-11-07T19:54:00.591Z,18.80
2022-11-07T19:56:30.967Z,19.00
2022-11-07T19:58:59.673Z,21.50
2022-11-07T20:01:30.632Z,21.00
2022-11-07T20:03:58.381Z,22.40
2022-11-07T20:06:29.712Z,20.20
2022-11-07T20:08:57.677Z,22.60
2022-11-07T20:11:26.159Z,21.20
2022-11-07T20:14:00.084Z,21.80
2022-11-07T20:16:30.049Z,19.60
2022-11-07T20:18:57.660Z,21.30
2022-11-07T20:21:25.449Z,21.80
2022-11-07T20:23:53.034Z,21.90
2022-11-07T20:26:22.590Z,18.50
2022-11-07T20:28:51.829Z,20.10
2022-11-07T20:31:22.788Z,21.30
2022-11-07T20:33:50.766Z,19.70
2022-11-07T20:36:19.265Z,20.20
2022-11-07T20:38:47.130Z,20.90
2022-11-07T20:41:14.967Z,20.80
2022-11-07T20:43:42.582Z,23.70
2022-11-07T20:46:13.998Z,23.10
2022-11-07T20:48:42.434Z,24.10
2022-11-07T20:51:15.638Z,25.20
2022-11-07T20:53:49.468Z,26.20
2022-11-07T20:56:19.386Z,29.00
2022-11-07T20:58:47.945Z,31.40
2022-11-07T21:01:24.787Z,29.90
2022-11-07T21:03:52.723Z,29.40
2022-11-07T21:06:20.637Z,28.00
2022-11-07T21:08:49.603Z,27.20
2022-11-07T21:11:17.516Z,25.50
2022-11-07T21:13:51.463Z,24.00
2022-11-07T21:16:25.189Z,26.40
2022-11-07T21:18:54.852Z,24.80
2022-11-07T21:21:26.326Z,23.50
2022-11-07T21:23:55.392Z,23.30
2022-11-07T21:26:32.405Z,22.70
2022-11-07T21:29:01.593Z,22.80
2022-11-07T21:31:32.107Z,23.90
2022-11-07T21:33:59.849Z,23.90
2022-11-07T21:36:30.552Z,23.40
2022-11-07T21:38:59.894Z,26.00
2022-11-07T21:41:28.999Z,25.30
2022-11-07T21:43:57.759Z,23.90
2022-11-07T21:46:28.542Z,26.00
2022-11-07T21:48:57.034Z,23.50
2022-11-07T21:51:27.366Z,22.90
2022-11-07T21:53:56.330Z,23.40
2022-11-07T21:56:29.838Z,24.60
2022-11-07T21:59:02.470Z,23.90
2022-11-07T22:01:32.299Z,23.00
2022-11-07T22:04:09.736Z,24.40
2022-11-07T22:06:44.220Z,22.90
2022-11-07T22:09:20.094Z,24.10
2022-11-07T22:11:49.360Z,23.40
2022-11-07T22:14:20.244Z,23.50
2022-11-07T22:16:49.258Z,25.80
2022-11-07T22:19:18.049Z,24.00
2022-11-07T22:21:45.660Z,22.20
2022-11-07T22:24:13.683Z,23.80
2022-11-07T22:26:41.307Z,23.60
2022-11-07T22:29:08.907Z,24.00
2022-11-07T22:31:36.521Z,24.30
2022-11-07T22:34:04.257Z,23.70
2022-11-07T22:36:31.952Z,22.50
2022-11-07T22:38:59.585Z,24.90
2022-11-07T22:41:28.775Z,24.70
2022-11-07T22:43:57.788Z,23.00
2022-11-07T22:46:28.879Z,24.50
2022-11-07T22:48:58.241Z,24.90
2022-11-07T22:51:31.731Z,23.30
2022-11-07T22:54:05.528Z,23.70
2022-11-07T22:56:34.949Z,23.00
2022-11-07T22:59:03.846Z,24.30
2022-11-07T23:01:37.366Z,24.40
2022-11-07T23:04:06.636Z,27.70
2022-11-07T23:06:34.733Z,28.10
2022-11-07T23:09:02.476Z,28.30
2022-11-07T23:11:48.798Z,27.20
2022-11-07T23:14:21.433Z,26.80
2022-11-07T23:16:53.959Z,27.40
2022-11-07T23:19:24.354Z,25.30
2022-11-07T23:21:56.206Z,27.20
2022-11-07T23:24:24.149Z,27.50
2022-11-07T23:26:51.760Z,25.60
2022-11-07T23:29:22.344Z,26.10
2022-11-07T23:31:51.245Z,27.70
2022-11-07T23:34:20.874Z,25.70
2022-11-07T23:36:52.513Z,25.70
2022-11-07T23:41:49.254Z,24.10
2022-11-07T23:44:16.951Z,25.90
2022-11-07T23:46:44.636Z,24.60
2022-11-07T23:49:14.707Z,22.00
2022-11-07T23:51:42.801Z,22.70
2022-11-07T23:54:10.406Z,24.10
2022-11-07T23:56:38.005Z,22.10
2022-11-07T23:59:06.358Z,21.50
